Time;durP1;ratioP1;P1;durP2;ratioP2;P2;SDS_P1;SDS_P2;PMS_P1;PMS_P2;Temp;Humidity;BMP_temperature;BMP_pressure;BME280_temperature;BME280_humidity;BME280_pressure;Samples;Min_cycle;Max_cycle;Signal;HPM_P1;HPM_P2
2023/10/17 00:01:21;;;;;;;10.23;4.60;;;7.00;99.90;;;;;;6164325;23;20366;-72
2023/10/17 00:03:48;;;;;;;5.00;3.70;;;6.90;99.90;;;;;;6139369;23;20394;-73
2023/10/17 00:06:17;;;;;;;4.47;4.00;;;6.80;99.90;;;;;;6137602;23;20359;-74
2023/10/17 00:08:50;;;;;;;6.67;4.40;;;6.70;99.90;;;;;;6162595;23;20689;-74
2023/10/17 00:11:17;;;;;;;6.13;4.40;;;6.70;99.90;;;;;;6161497;23;20859;-74
2023/10/17 00:13:59;;;;;;;8.00;5.10;;;6.70;99.90;;;;;;6161721;23;20465;-74
2023/10/17 00:16:27;;;;;;;7.07;4.50;;;6.60;99.90;;;;;;6162596;23;20485;-73
2023/10/17 00:18:52;;;;;;;5.37;4.30;;;6.60;99.90;;;;;;6164006;23;20387;-72
2023/10/17 00:21:25;;;;;;;5.80;4.80;;;6.60;99.90;;;;;;6136506;23;20370;-74
2023/10/17 00:23:52;;;;;;;7.57;5.03;;;6.50;99.90;;;;;;6136611;23;20175;-74
2023/10/17 00:26:18;;;;;;;7.57;5.00;;;6.50;99.90;;;;;;6136363;23;20386;-72
2023/10/17 00:28:51;;;;;;;7.37;5.03;;;6.50;99.90;;;;;;6162547;23;20363;-71
2023/10/17 00:31:19;;;;;;;6.93;4.87;;;6.50;99.90;;;;;;6162483;23;20398;-72
2023/10/17 00:33:48;;;;;;;6.13;4.93;;;6.50;99.90;;;;;;6160380;23;20434;-73
2023/10/17 00:36:16;;;;;;;8.43;5.00;;;6.50;99.90;;;;;;6112584;23;20411;-72
2023/10/17 00:38:45;;;;;;;6.33;3.87;;;6.40;99.90;;;;;;6163887;23;20490;-71
2023/10/17 00:41:27;;;;;;;6.57;4.73;;;6.40;99.90;;;;;;6137797;23;20434;-73
2023/10/17 00:43:53;;;;;;;5.47;4.23;;;6.30;99.90;;;;;;6163715;23;20876;-73
2023/10/17 00:46:19;;;;;;;5.70;4.00;;;6.30;99.90;;;;;;6163943;23;20471;-74
2023/10/17 00:48:48;;;;;;;6.23;4.83;;;6.20;99.90;;;;;;6137389;23;20375;-71
2023/10/17 00:51:19;;;;;;;5.47;4.63;;;6.20;99.90;;;;;;6162284;23;20135;-71
2023/10/17 00:53:46;;;;;;;4.50;3.80;;;6.10;99.90;;;;;;6163445;23;20402;-72
2023/10/17 00:56:13;;;;;;;5.77;4.30;;;6.10;99.90;;;;;;6162225;23;20418;-72
2023/10/17 00:58:39;;;;;;;6.37;4.33;;;6.00;99.90;;;;;;6161685;23;20359;-72
2023/10/17 01:01:20;;;;;;;6.20;5.07;;;6.00;99.90;;;;;;6160785;23;20395;-72
2023/10/17 01:03:48;;;;;;;5.90;4.13;;;6.00;99.90;;;;;;6162025;23;20421;-74
2023/10/17 01:08:50;;;;;;;6.33;4.37;;;6.00;99.90;;;;;;6161861;23;20370;-71
2023/10/17 01:11:22;;;;;;;8.00;4.47;;;6.00;99.90;;;;;;6161049;23;20704;-72
2023/10/17 01:13:52;;;;;;;5.60;4.73;;;6.00;99.90;;;;;;6161034;23;20406;-72
2023/10/17 01:16:19;;;;;;;6.10;4.57;;;6.10;99.90;;;;;;6140213;23;20442;-72
2023/10/17 01:18:45;;;;;;;7.27;3.93;;;6.10;99.90;;;;;;6161775;23;20641;-73
2023/10/17 01:21:15;;;;;;;6.07;4.00;;;6.20;99.90;;;;;;6162183;23;20363;-73
2023/10/17 01:23:41;;;;;;;5.60;4.30;;;6.20;99.90;;;;;;6160723;23;20434;-73
2023/10/17 01:26:14;;;;;;;6.40;4.73;;;6.20;99.90;;;;;;6161922;23;20374;-72
2023/10/17 01:28:45;;;;;;;13.60;4.50;;;6.30;99.90;;;;;;6162274;23;20355;-72
2023/10/17 01:31:14;;;;;;;6.77;4.37;;;6.40;99.90;;;;;;6161510;23;20368;-71
2023/10/17 01:33:43;;;;;;;6.97;4.40;;;6.40;99.90;;;;;;6135255;23;20469;-73
2023/10/17 01:36:10;;;;;;;5.70;4.73;;;6.50;99.90;;;;;;6159620;23;20398;-73
2023/10/17 01:38:36;;;;;;;5.73;3.97;;;6.50;99.90;;;;;;6135521;23;20387;-72
2023/10/17 01:41:01;;;;;;;6.83;4.87;;;6.50;99.90;;;;;;6160727;23;20832;-71
2023/10/17 01:43:45;;;;;;;6.90;4.97;;;6.50;99.90;;;;;;6110389;23;20187;-72
2023/10/17 01:46:28;;;;;;;6.20;4.03;;;6.60;99.90;;;;;;6135429;23;20264;-72
2023/10/17 01:48:55;;;;;;;8.40;3.83;;;6.60;99.90;;;;;;6160353;23;20447;-72
2023/10/17 01:51:24;;;;;;;6.77;4.00;;;6.60;99.90;;;;;;6161651;23;20370;-72
2023/10/17 01:53:51;;;;;;;8.30;4.07;;;6.60;99.90;;;;;;6135047;23;20413;-73
2023/10/17 01:56:25;;;;;;;5.80;4.13;;;6.60;99.90;;;;;;6161288;23;20795;-72
2023/10/17 01:58:55;;;;;;;4.70;3.50;;;6.60;99.90;;;;;;6135404;23;20667;-72
2023/10/17 02:01:25;;;;;;;8.60;4.00;;;6.60;99.90;;;;;;6136519;23;20383;-73
2023/10/17 02:04:02;;;;;;;6.57;4.17;;;6.60;99.90;;;;;;6160717;23;20466;-74
2023/10/17 02:06:30;;;;;;;7.30;4.57;;;6.60;99.90;;;;;;6134729;23;20796;-71
2023/10/17 02:08:58;;;;;;;5.90;4.17;;;6.60;99.90;;;;;;6160755;23;20768;-74
2023/10/17 02:11:24;;;;;;;8.33;5.30;;;6.60;99.90;;;;;;6160086;23;20378;-73
2023/10/17 02:13:52;;;;;;;7.50;4.37;;;6.60;99.90;;;;;;6134971;23;20399;-71
2023/10/17 02:16:17;;;;;;;5.33;4.23;;;6.60;99.90;;;;;;6111764;23;20497;-72
2023/10/17 02:18:44;;;;;;;5.03;3.70;;;6.60;99.90;;;;;;6135105;23;20772;-73
2023/10/17 02:21:12;;;;;;;5.40;3.20;;;6.60;99.90;;;;;;6159712;23;20159;-72
2023/10/17 02:23:49;;;;;;;4.03;3.50;;;6.60;99.90;;;;;;6160177;23;20401;-72
2023/10/17 02:26:21;;;;;;;6.60;3.70;;;6.50;99.90;;;;;;6158523;23;20383;-72
2023/10/17 02:28:53;;;;;;;3.50;3.10;;;6.50;99.90;;;;;;6134199;23;20375;-72
2023/10/17 02:31:27;;;;;;;4.17;3.77;;;6.50;99.90;;;;;;6161670;23;20374;-72
2023/10/17 02:33:54;;;;;;;4.93;3.80;;;6.50;99.90;;;;;;6112089;23;20488;-73
2023/10/17 02:36:20;;;;;;;12.57;5.23;;;6.50;99.90;;;;;;6162705;23;20406;-72
2023/10/17 02:38:46;;;;;;;6.37;4.40;;;6.50;99.90;;;;;;6137208;23;20686;-73
2023/10/17 02:41:14;;;;;;;10.23;4.70;;;6.50;99.90;;;;;;6113878;23;20151;-72
2023/10/17 02:43:45;;;;;;;5.37;4.60;;;6.50;99.90;;;;;;6137316;23;20195;-72
2023/10/17 02:46:14;;;;;;;10.10;5.00;;;6.50;99.90;;;;;;6139289;23;20390;-72
2023/10/17 02:48:47;;;;;;;5.50;4.27;;;6.60;99.90;;;;;;6137093;23;20382;-71
2023/10/17 02:51:31;;;;;;;8.33;4.20;;;6.70;99.90;;;;;;6163019;23;20892;-72
2023/10/17 02:53:58;;;;;;;6.13;4.00;;;6.70;99.90;;;;;;6161987;23;20409;-74
2023/10/17 02:56:26;;;;;;;6.97;4.50;;;6.70;99.90;;;;;;6136500;23;20478;-71
2023/10/17 02:59:17;;;;;;;5.10;3.77;;;6.80;99.90;;;;;;6136823;23;20815;-72
2023/10/17 03:01:43;;;;;;;5.27;3.97;;;6.80;99.90;;;;;;6112674;23;20371;-73
2023/10/17 03:04:13;;;;;;;7.57;3.80;;;6.80;99.90;;;;;;6162353;23;20463;-73
2023/10/17 03:06:42;;;;;;;6.30;3.90;;;6.90;99.90;;;;;;6163817;23;20398;-73
2023/10/17 03:09:37;;;;;;;5.00;3.70;;;6.90;99.90;;;;;;6162554;23;20374;-73
2023/10/17 03:14:40;;;;;;;4.40;3.20;;;6.90;99.90;;;;;;6161515;23;20426;-72
2023/10/17 03:17:09;;;;;;;3.60;3.30;;;6.90;99.90;;;;;;6162746;23;20182;-74
2023/10/17 03:19:35;;;;;;;5.53;3.73;;;6.90;99.90;;;;;;6112764;23;20367;-73
2023/10/17 03:24:47;;;;;;;6.17;3.77;;;7.10;99.90;;;;;;6161540;23;20407;-72
2023/10/17 03:27:24;;;;;;;10.87;3.77;;;7.00;99.90;;;;;;6138905;23;20367;-73
2023/10/17 03:29:51;;;;;;;5.70;3.63;;;7.00;99.90;;;;;;6138699;23;20382;-71
2023/10/17 03:32:17;;;;;;;3.83;3.30;;;7.00;99.90;;;;;;6136467;23;20372;-72
2023/10/17 03:34:45;;;;;;;4.57;3.20;;;7.00;99.90;;;;;;6137079;23;20429;-73
2023/10/17 03:39:54;;;;;;;6.40;3.80;;;7.00;99.90;;;;;;6136666;23;20382;-72
2023/10/17 03:42:43;;;;;;;5.07;4.03;;;7.00;99.90;;;;;;6135517;23;20378;-72
2023/10/17 03:45:13;;;;;;;6.00;4.40;;;7.00;99.90;;;;;;6138922;23;20411;-72
2023/10/17 03:48:17;;;;;;;4.03;3.07;;;7.10;99.90;;;;;;6137725;23;20462;-74
2023/10/17 03:50:36;;;;;;;5.17;3.63;;;7.00;99.90;;;;;;6161073;23;20382;-71
2023/10/17 03:53:14;;;;;;;3.63;3.03;;;6.90;99.90;;;;;;6164244;23;20792;-71
2023/10/17 03:55:42;;;;;;;4.07;3.67;;;6.80;99.90;;;;;;6162999;23;20795;-73
2023/10/17 03:58:24;;;;;;;8.23;4.00;;;6.80;99.90;;;;;;6137401;23;20410;-72
2023/10/17 04:01:06;;;;;;;5.30;4.00;;;6.70;99.90;;;;;;6162416;23;20398;-73
2023/10/17 04:03:32;;;;;;;8.00;4.10;;;6.70;99.90;;;;;;6161633;23;20399;-72
2023/10/17 04:08:37;;;;;;;4.50;3.50;;;6.80;99.90;;;;;;6162689;23;20135;-74
2023/10/17 04:11:17;;;;;;;4.83;4.33;;;6.80;99.90;;;;;;6163016;23;20363;-73
2023/10/17 04:13:50;;;;;;;4.37;3.60;;;6.80;99.90;;;;;;6161251;23;20391;-72
2023/10/17 04:16:27;;;;;;;4.93;3.70;;;6.80;99.90;;;;;;6162929;23;20402;-72
2023/10/17 04:21:45;;;;;;;4.80;3.60;;;6.90;99.90;;;;;;6162857;23;20366;-74
2023/10/17 04:24:11;;;;;;;4.23;3.70;;;6.80;99.90;;;;;;6172681;23;20394;-73
2023/10/17 04:26:43;;;;;;;8.00;4.00;;;6.90;99.90;;;;;;6174920;23;20727;-74
2023/10/17 04:29:11;;;;;;;6.60;3.63;;;6.90;99.90;;;;;;6144835;23;20433;-72
2023/10/17 04:31:43;;;;;;;5.37;4.20;;;7.00;99.90;;;;;;6167494;23;20370;-74
2023/10/17 04:34:14;;;;;;;4.20;3.43;;;7.00;99.90;;;;;;6140998;23;20399;-72
2023/10/17 04:36:40;;;;;;;7.80;4.13;;;7.00;99.90;;;;;;6142006;23;20414;-73
2023/10/17 04:44:21;;;;;;;5.33;3.80;;;6.90;99.90;;;;;;6140606;23;20434;-73
2023/10/17 04:47:07;;;;;;;10.43;4.40;;;6.90;99.90;;;;;;6141299;23;20447;-75
2023/10/17 04:49:36;;;;;;;5.10;3.93;;;6.90;99.90;;;;;;6168488;23;20371;-72
2023/10/17 04:52:06;;;;;;;7.77;4.20;;;6.90;99.90;;;;;;6167512;23;20371;-73
2023/10/17 04:57:09;;;;;;;5.17;3.90;;;6.90;99.90;;;;;;6167746;23;20419;-73
2023/10/17 04:59:41;;;;;;;5.30;4.10;;;6.90;99.90;;;;;;6167187;23;20367;-73
2023/10/17 05:02:35;;;;;;;8.07;4.00;;;6.90;99.90;;;;;;6142173;23;20363;-74
2023/10/17 05:07:34;;;;;;;6.03;3.90;;;6.90;99.90;;;;;;6141050;23;20366;-74
2023/10/17 06:17:48;;;;;;;6.30;4.10;;;7.00;99.90;;;;;;6175787;23;20414;-73
2023/10/17 06:20:17;;;;;;;6.70;3.93;;;7.00;99.90;;;;;;6146549;23;20430;-73
2023/10/17 06:23:23;;;;;;;6.80;4.60;;;6.90;99.90;;;;;;6147004;23;20363;-74
2023/10/17 06:28:46;;;;;;;8.93;4.40;;;7.10;99.90;;;;;;6146426;23;20394;-74
2023/10/17 06:34:00;;;;;;;4.53;3.10;;;7.20;99.90;;;;;;6174459;23;20422;-76
2023/10/17 06:36:29;;;;;;;7.03;3.43;;;7.20;99.90;;;;;;6172810;23;20415;-76
2023/10/17 06:38:56;;;;;;;6.70;3.83;;;7.30;99.90;;;;;;6146357;23;20445;-75
2023/10/17 06:41:28;;;;;;;11.43;4.57;;;7.30;99.90;;;;;;6123964;23;20601;-74
2023/10/17 06:44:05;;;;;;;4.50;3.40;;;7.40;99.90;;;;;;6121296;23;20399;-75
2023/10/17 06:46:36;;;;;;;7.27;4.10;;;7.40;99.90;;;;;;6124476;23;20434;-74
2023/10/17 06:49:08;;;;;;;8.37;4.10;;;7.50;99.90;;;;;;6122530;23;20381;-74
2023/10/17 06:51:39;;;;;;;10.80;4.83;;;7.60;99.90;;;;;;6146428;23;20363;-75
2023/10/17 06:54:12;;;;;;;6.70;3.40;;;7.60;99.90;;;;;;6099434;23;20466;-77
2023/10/17 06:56:44;;;;;;;6.20;3.40;;;7.70;99.90;;;;;;6124496;23;20438;-75
2023/10/17 06:59:35;;;;;;;11.97;3.97;;;7.70;99.90;;;;;;6146431;23;20421;-75
2023/10/17 07:02:18;;;;;;;5.80;3.70;;;7.70;99.90;;;;;;6171086;23;20423;-77
2023/10/17 07:04:49;;;;;;;9.80;4.03;;;7.80;99.90;;;;;;6147292;23;20403;-74
2023/10/17 07:07:18;;;;;;;4.97;3.30;;;7.90;99.90;;;;;;6150556;23;20414;-76
2023/10/17 07:09:52;;;;;;;3.53;2.77;;;8.00;99.90;;;;;;6150346;23;20693;-75
2023/10/17 07:12:20;;;;;;;6.03;3.57;;;8.00;99.90;;;;;;6150999;23;20406;-77
2023/10/17 07:14:51;;;;;;;4.97;3.00;;;8.10;99.90;;;;;;6124500;23;20435;-74
2023/10/17 07:17:25;;;;;;;3.60;3.17;;;8.10;99.90;;;;;;6149205;23;20430;-76
2023/10/17 07:20:12;;;;;;;4.87;4.00;;;8.20;99.90;;;;;;6124468;23;20371;-77
2023/10/17 07:22:41;;;;;;;8.97;5.20;;;8.30;99.90;;;;;;6131192;23;20430;-78
2023/10/17 07:25:16;;;;;;;8.20;5.10;;;8.30;99.90;;;;;;6149895;23;20414;-77
2023/10/17 07:27:44;;;;;;;31.97;7.87;;;8.40;99.90;;;;;;6147742;23;20351;-74
2023/10/17 07:30:13;;;;;;;8.33;4.43;;;8.50;99.90;;;;;;6148366;23;20441;-74
2023/10/17 07:32:54;;;;;;;9.20;4.23;;;8.60;99.90;;;;;;6153981;23;20402;-77
2023/10/17 07:35:23;;;;;;;12.07;6.00;;;8.60;99.90;;;;;;6149891;23;20382;-76
2023/10/17 07:37:55;;;;;;;8.97;4.50;;;8.70;99.90;;;;;;6104729;23;20433;-77
2023/10/17 07:40:41;;;;;;;14.53;5.70;;;8.70;99.90;;;;;;6177082;23;20237;-75
2023/10/17 07:43:07;;;;;;;13.10;4.90;;;8.80;99.90;;;;;;6103249;23;20371;-77
2023/10/17 07:45:39;;;;;;;10.40;4.07;;;8.90;99.90;;;;;;6127483;23;20371;-76
2023/10/17 07:48:24;;;;;;;6.63;2.90;;;9.00;99.90;;;;;;6127881;23;20474;-75
2023/10/17 07:50:51;;;;;;;11.97;4.40;;;8.90;99.90;;;;;;6129406;23;20430;-74
2023/10/17 07:53:20;;;;;;;6.47;3.80;;;9.10;99.90;;;;;;6126130;23;20406;-76
2023/10/17 07:56:02;;;;;;;7.03;2.87;;;9.10;99.90;;;;;;6148920;23;20382;-76
2023/10/17 07:58:44;;;;;;;6.10;3.70;;;9.10;99.90;;;;;;6151004;23;20386;-77
2023/10/17 08:01:16;;;;;;;7.23;3.60;;;9.20;99.90;;;;;;6151384;23;20628;-74
2023/10/17 08:03:54;;;;;;;6.63;3.23;;;9.20;99.90;;;;;;6128851;23;20406;-75
2023/10/17 08:06:22;;;;;;;6.07;3.40;;;9.30;99.90;;;;;;6149781;23;20375;-76
2023/10/17 08:08:50;;;;;;;5.60;3.17;;;9.30;99.90;;;;;;6151928;23;20393;-77
2023/10/17 08:11:28;;;;;;;5.33;3.10;;;9.40;99.90;;;;;;6127829;23;20383;-76
2023/10/17 08:13:56;;;;;;;3.23;2.33;;;9.50;99.90;;;;;;6114252;23;20404;-75
2023/10/17 08:16:29;;;;;;;2.80;2.43;;;9.60;99.90;;;;;;6116059;23;20420;-75
2023/10/17 08:21:49;;;;;;;4.87;2.77;;;9.80;99.90;;;;;;6115253;23;20412;-74
2023/10/17 08:24:26;;;;;;;7.50;2.50;;;9.70;99.90;;;;;;6116753;23;20455;-77
2023/10/17 08:27:17;;;;;;;4.13;2.30;;;9.80;99.10;;;;;;6101156;23;20383;-75
2023/10/17 08:29:42;;;;;;;2.73;1.90;;;9.80;99.90;;;;;;6145674;23;20386;-77
2023/10/17 08:35:18;;;;;;;7.50;3.73;;;9.90;99.90;;;;;;6125311;23;20403;-75
2023/10/17 08:37:45;;;;;;;11.70;3.27;;;10.10;98.50;;;;;;6147914;23;20423;-77
2023/10/17 08:40:33;;;;;;;10.50;4.53;;;10.10;97.10;;;;;;6146986;23;20466;-76
2023/10/17 08:43:22;;;;;;;5.53;2.63;;;10.20;96.90;;;;;;6122484;23;20380;-76
2023/10/17 08:45:58;;;;;;;3.70;2.67;;;10.20;94.70;;;;;;6123636;23;20379;-77
2023/10/17 08:48:28;;;;;;;3.60;2.40;;;10.20;95.50;;;;;;6147740;23;20399;-74
2023/10/17 08:50:56;;;;;;;5.93;2.63;;;10.40;93.80;;;;;;6147359;23;20687;-75
2023/10/17 08:53:23;;;;;;;5.67;3.63;;;10.60;92.10;;;;;;6123782;23;20399;-75
2023/10/17 08:55:54;;;;;;;5.83;2.73;;;10.60;91.70;;;;;;6149011;23;20379;-76
2023/10/17 08:58:32;;;;;;;7.70;3.70;;;10.60;91.70;;;;;;6125431;23;20399;-77
2023/10/17 09:01:10;;;;;;;7.73;2.90;;;10.70;91.40;;;;;;6125919;23;20387;-76
2023/10/17 09:03:40;;;;;;;6.40;3.80;;;10.70;90.50;;;;;;6126532;23;20423;-77
2023/10/17 09:09:17;;;;;;;4.23;2.20;;;10.70;87.80;;;;;;6091927;23;20385;-75
2023/10/17 09:12:01;;;;;;;5.07;2.07;;;10.80;87.70;;;;;;6092213;23;20377;-76
2023/10/17 09:14:35;;;;;;;3.33;3.00;;;10.80;85.90;;;;;;6092446;23;20436;-76
2023/10/17 09:20:11;;;;;;;4.70;2.47;;;10.80;86.40;;;;;;6089141;23;20381;-75
2023/10/17 09:22:38;;;;;;;4.07;2.10;;;10.80;85.10;;;;;;6070073;23;20396;-77
2023/10/17 09:25:22;;;;;;;4.90;3.00;;;10.70;85.20;;;;;;6117716;23;20892;-77
2023/10/17 09:27:57;;;;;;;5.87;2.57;;;10.70;85.80;;;;;;6115492;23;20357;-76
2023/10/17 09:30:26;;;;;;;4.53;2.50;;;10.60;86.80;;;;;;6093764;23;20391;-78
2023/10/17 09:32:52;;;;;;;9.07;2.93;;;10.60;84.90;;;;;;6068383;23;20388;-76
2023/10/17 09:35:19;;;;;;;7.97;3.57;;;10.50;84.10;;;;;;6071493;23;20388;-76
2023/10/17 09:38:07;;;;;;;4.30;2.47;;;10.40;84.40;;;;;;6091498;23;20420;-74
2023/10/17 09:40:33;;;;;;;11.10;3.37;;;10.50;82.90;;;;;;6092615;23;20133;-76
2023/10/17 09:43:00;;;;;;;7.17;3.70;;;10.50;82.40;;;;;;6095039;23;20351;-77
2023/10/17 09:45:47;;;;;;;3.73;2.27;;;10.50;81.10;;;;;;6113386;23;20159;-76
2023/10/17 09:48:52;;;;;;;6.90;3.43;;;10.50;80.50;;;;;;6150505;23;20367;-75
2023/10/17 09:51:29;;;;;;;10.33;5.40;;;10.40;81.40;;;;;;6149248;23;20388;-77
2023/10/17 09:54:04;;;;;;;6.67;2.53;;;10.30;81.80;;;;;;6150694;23;20403;-75
2023/10/17 09:56:57;;;;;;;10.33;4.50;;;10.30;82.30;;;;;;6149755;23;20427;-76
2023/10/17 09:59:29;;;;;;;8.33;3.47;;;10.30;82.00;;;;;;6114401;23;20387;-76
2023/10/17 10:01:59;;;;;;;14.37;4.93;;;10.10;83.10;;;;;;6150041;23;20758;-76
2023/10/17 10:04:29;;;;;;;6.77;2.80;;;10.20;82.90;;;;;;6152080;23;20453;-75
2023/10/17 10:07:21;;;;;;;5.40;2.53;;;10.10;83.10;;;;;;6150256;23;20435;-77
2023/10/17 10:09:47;;;;;;;10.13;3.00;;;10.00;84.70;;;;;;6098400;23;20382;-78
2023/10/17 10:12:18;;;;;;;6.43;2.77;;;10.00;83.90;;;;;;6151124;23;20356;-76
2023/10/17 10:14:49;;;;;;;4.43;2.27;;;9.90;86.20;;;;;;6151379;23;20172;-75
2023/10/17 10:17:17;;;;;;;2.70;2.07;;;9.90;87.20;;;;;;6125798;23;20426;-76
2023/10/17 10:19:49;;;;;;;5.23;2.80;;;10.00;85.20;;;;;;6100495;23;20403;-76
2023/10/17 10:25:07;;;;;;;2.30;1.80;;;10.00;85.00;;;;;;6149510;23;20438;-76
2023/10/17 10:27:34;;;;;;;8.17;2.80;;;10.10;84.80;;;;;;6125573;23;20391;-78
2023/10/17 10:30:43;;;;;;;3.90;1.90;;;10.20;84.30;;;;;;6150918;23;20364;-76
2023/10/17 10:33:09;;;;;;;4.97;2.20;;;10.30;84.50;;;;;;6152397;23;20720;-75
2023/10/17 10:35:36;;;;;;;4.97;1.97;;;10.50;82.60;;;;;;6124871;23;20383;-77
2023/10/17 10:38:03;;;;;;;2.60;2.23;;;10.60;82.90;;;;;;6126326;23;20490;-76
2023/10/17 10:40:32;;;;;;;5.10;2.40;;;10.70;83.40;;;;;;6151103;23;20359;-77
2023/10/17 10:43:04;;;;;;;4.53;2.37;;;10.80;82.40;;;;;;6150291;23;20375;-76
2023/10/17 10:45:46;;;;;;;3.00;1.90;;;10.90;80.90;;;;;;6099915;23;20499;-77
2023/10/17 10:48:32;;;;;;;7.00;2.13;;;11.00;80.60;;;;;;6146811;23;20494;-77
2023/10/17 10:51:00;;;;;;;3.20;1.67;;;11.00;79.30;;;;;;6150691;23;20443;-77
2023/10/17 10:53:32;;;;;;;4.00;2.00;;;11.00;78.10;;;;;;6126746;23;20414;-77
2023/10/17 10:56:09;;;;;;;2.00;1.60;;;11.00;75.70;;;;;;6124901;23;20399;-77
2023/10/17 10:58:48;;;;;;;3.63;1.60;;;11.20;73.40;;;;;;6119798;23;20439;-77
2023/10/17 11:01:14;;;;;;;4.07;1.70;;;11.20;71.90;;;;;;6129881;23;20383;-76
2023/10/17 11:03:41;;;;;;;2.43;1.57;;;11.20;71.20;;;;;;6126763;23;20412;-76
2023/10/17 11:06:10;;;;;;;2.50;1.70;;;11.30;71.90;;;;;;6101304;23;20657;-77
2023/10/17 11:08:37;;;;;;;2.77;2.30;;;11.20;71.60;;;;;;6101812;23;20378;-76
2023/10/17 11:11:05;;;;;;;4.70;1.87;;;11.30;71.40;;;;;;6100724;23;20460;-75
2023/10/17 11:13:37;;;;;;;4.50;2.20;;;11.30;70.50;;;;;;6125603;23;20468;-76
2023/10/17 11:16:16;;;;;;;4.60;2.17;;;11.30;70.90;;;;;;6103754;23;20375;-77
2023/10/17 11:18:47;;;;;;;3.67;2.03;;;11.30;70.00;;;;;;6151698;23;20368;-77
2023/10/17 11:21:20;;;;;;;4.87;2.53;;;11.40;69.40;;;;;;6101804;23;20501;-78
2023/10/17 11:26:25;;;;;;;8.90;3.93;;;11.40;68.90;;;;;;6153163;23;20451;-78
2023/10/17 11:28:52;;;;;;;3.17;2.10;;;11.40;68.80;;;;;;6125026;23;20423;-77
2023/10/17 11:31:22;;;;;;;3.37;1.47;;;11.50;67.10;;;;;;6102475;23;20409;-76
2023/10/17 11:34:13;;;;;;;9.73;4.67;;;11.50;66.70;;;;;;6153263;23;20824;-78
2023/10/17 11:36:55;;;;;;;8.67;4.67;;;11.60;67.30;;;;;;6126967;23;20471;-77
2023/10/17 11:39:26;;;;;;;7.73;3.50;;;11.60;67.50;;;;;;6126664;23;20376;-77
2023/10/17 11:41:57;;;;;;;4.30;3.20;;;11.70;66.60;;;;;;6124143;23;20388;-77
2023/10/17 11:45:19;;;;;;;6.30;3.40;;;11.80;64.20;;;;;;6131070;23;20480;-78
2023/10/17 11:48:31;;;;;;;16.57;7.57;;;11.90;64.50;;;;;;6146695;23;20438;-76
2023/10/17 11:51:05;;;;;;;16.30;6.70;;;11.90;63.00;;;;;;6150658;23;20413;-78
2023/10/17 11:54:37;;;;;;;11.90;6.27;;;12.00;62.90;;;;;;6155255;23;20514;-77
2023/10/17 11:57:27;;;;;;;5.47;3.80;;;12.00;62.80;;;;;;6154354;23;20435;-77
2023/10/17 12:06:00;;;;;;;13.67;5.40;;;11.90;62.00;;;;;;6095429;23;20440;-77
2023/10/17 12:08:29;;;;;;;8.47;4.70;;;12.00;61.70;;;;;;6073844;23;20401;-76
2023/10/17 12:10:56;;;;;;;7.53;3.20;;;12.00;61.90;;;;;;6050195;23;20374;-77
2023/10/17 12:13:22;;;;;;;4.03;2.23;;;11.90;62.00;;;;;;6074905;23;20389;-76
2023/10/17 12:16:02;;;;;;;4.00;3.03;;;11.90;61.80;;;;;;6099969;23;20719;-76
2023/10/17 12:18:36;;;;;;;3.90;2.80;;;12.00;62.40;;;;;;6121920;23;20411;-75
2023/10/17 12:21:04;;;;;;;7.30;4.20;;;12.00;61.20;;;;;;6073925;23;20380;-77
2023/10/17 12:23:30;;;;;;;5.77;3.10;;;12.00;60.00;;;;;;6097725;23;20189;-76
2023/10/17 12:26:01;;;;;;;3.83;2.43;;;12.10;59.90;;;;;;6078406;23;20522;-79
2023/10/17 12:28:27;;;;;;;5.10;3.70;;;12.10;59.90;;;;;;6123422;23;20372;-76
2023/10/17 12:36:07;;;;;;;6.77;3.60;;;12.20;58.50;;;;;;6060432;23;20389;-76
2023/10/17 12:38:35;;;;;;;7.70;3.60;;;12.30;57.60;;;;;;6036362;23;20423;-76
2023/10/17 12:41:06;;;;;;;5.60;2.37;;;12.30;57.60;;;;;;6037715;23;20383;-76
2023/10/17 12:43:35;;;;;;;5.07;3.30;;;12.40;58.00;;;;;;6043309;23;20413;-78
2023/10/17 12:46:13;;;;;;;3.87;1.77;;;12.50;57.50;;;;;;6091428;23;20426;-78
2023/10/17 12:48:46;;;;;;;6.00;3.93;;;12.50;57.40;;;;;;6067794;23;20373;-77
2023/10/17 12:51:20;;;;;;;3.83;3.37;;;12.40;57.60;;;;;;6066932;23;20442;-76
2023/10/17 12:53:49;;;;;;;16.17;8.30;;;12.40;58.50;;;;;;6044093;23;20397;-77
2023/10/17 12:56:17;;;;;;;7.60;4.00;;;12.30;57.80;;;;;;6041908;23;20406;-77
2023/10/17 12:58:44;;;;;;;6.60;3.97;;;12.40;56.40;;;;;;6066676;23;20434;-78
2023/10/17 13:01:12;;;;;;;5.53;3.03;;;12.50;56.50;;;;;;6068802;23;20357;-77
2023/10/17 13:03:38;;;;;;;10.37;4.17;;;12.40;56.60;;;;;;6068932;23;20401;-77
2023/10/17 13:06:11;;;;;;;8.50;4.00;;;12.40;56.40;;;;;;6066504;23;20350;-76
2023/10/17 13:08:41;;;;;;;7.00;4.20;;;12.40;56.30;;;;;;6042668;23;20361;-78
2023/10/17 13:11:26;;;;;;;11.60;5.23;;;12.60;55.60;;;;;;6066346;23;20374;-77
2023/10/17 13:13:55;;;;;;;13.77;5.73;;;12.60;55.50;;;;;;6091204;23;20408;-77
2023/10/17 13:16:29;;;;;;;5.67;3.60;;;12.60;55.60;;;;;;6090326;23;20420;-76
2023/10/17 13:19:06;;;;;;;9.80;3.83;;;12.60;55.50;;;;;;6041813;23;20459;-76
2023/10/17 13:21:37;;;;;;;12.80;5.27;;;12.60;55.60;;;;;;6083760;23;20488;-78
2023/10/17 13:24:07;;;;;;;7.10;4.00;;;12.80;55.00;;;;;;6124529;23;20420;-78
2023/10/17 13:26:45;;;;;;;8.13;3.33;;;12.60;55.20;;;;;;6150153;23;20392;-78
2023/10/17 13:29:13;;;;;;;7.13;2.67;;;12.70;55.20;;;;;;6091811;23;20389;-76
2023/10/17 13:31:41;;;;;;;4.43;1.33;;;12.70;55.00;;;;;;6043842;23;20376;-78
2023/10/17 13:34:22;;;;;;;3.53;2.23;;;12.80;53.80;;;;;;6062145;23;20194;-77
2023/10/17 13:42:24;;;;;;;1.43;1.27;;;12.60;55.00;;;;;;6093378;23;20479;-77
2023/10/17 13:44:54;;;;;;;2.70;2.00;;;12.50;55.50;;;;;;6093115;23;20413;-77
2023/10/17 13:47:43;;;;;;;2.50;1.40;;;12.50;55.70;;;;;;6092066;23;20381;-77
2023/10/17 13:50:13;;;;;;;3.03;1.40;;;12.50;55.40;;;;;;6046647;23;20381;-78
2023/10/17 13:52:42;;;;;;;3.57;2.23;;;12.60;55.00;;;;;;6069114;23;20380;-77
2023/10/17 13:58:34;;;;;;;6.70;4.50;;;12.60;54.40;;;;;;6133863;23;20438;-77
2023/10/17 14:01:02;;;;;;;7.70;4.33;;;12.60;55.00;;;;;;6123280;23;20399;-76
2023/10/17 14:06:17;;;;;;;9.10;4.40;;;12.80;53.70;;;;;;6148316;23;20443;-77
2023/10/17 14:08:47;;;;;;;3.60;2.43;;;12.70;54.30;;;;;;6126636;23;20379;-78
2023/10/17 14:11:20;;;;;;;3.73;2.50;;;12.70;54.50;;;;;;6077622;23;20403;-77
2023/10/17 14:13:49;;;;;;;1.80;1.33;;;12.60;54.70;;;;;;6102257;23;20433;-77
2023/10/17 14:16:17;;;;;;;4.17;2.47;;;12.60;55.00;;;;;;6126687;23;20392;-77
2023/10/17 14:18:46;;;;;;;10.30;5.93;;;12.60;54.90;;;;;;6127751;23;20387;-77
2023/10/17 14:24:11;;;;;;;11.73;3.33;;;12.50;54.50;;;;;;6138126;23;20442;-77
2023/10/17 14:26:39;;;;;;;34.50;16.43;;;12.40;54.70;;;;;;6102799;23;20372;-79
2023/10/17 14:29:06;;;;;;;12.17;4.83;;;12.50;54.40;;;;;;6128331;23;20387;-77
2023/10/17 14:31:32;;;;;;;11.97;5.70;;;12.50;53.90;;;;;;6103830;23;20442;-76
2023/10/17 14:34:39;;;;;;;7.23;3.30;;;12.50;53.80;;;;;;6104359;23;20399;-77
2023/10/17 14:37:06;;;;;;;3.73;1.97;;;12.50;53.50;;;;;;6152357;23;20604;-78
2023/10/17 14:39:33;;;;;;;3.77;2.43;;;12.50;53.60;;;;;;6102659;23;20382;-76
2023/10/17 14:41:59;;;;;;;7.63;4.03;;;12.50;53.50;;;;;;6078228;23;20733;-77
2023/10/17 14:44:27;;;;;;;19.10;7.90;;;12.50;53.80;;;;;;6126519;23;20425;-77
2023/10/17 14:46:54;;;;;;;12.00;5.30;;;12.50;53.30;;;;;;6151569;23;20176;-77
2023/10/17 14:49:23;;;;;;;25.73;10.73;;;12.50;53.30;;;;;;6126003;23;20399;-77
2023/10/17 14:54:42;;;;;;;14.67;6.47;;;12.60;52.90;;;;;;6153270;23;20475;-77
2023/10/17 14:57:10;;;;;;;7.30;4.60;;;12.60;53.00;;;;;;6128769;23;20466;-78
2023/10/17 14:59:40;;;;;;;5.23;2.63;;;12.60;53.10;;;;;;6150859;23;20387;-77
2023/10/17 15:02:14;;;;;;;4.63;1.60;;;12.60;53.10;;;;;;6128217;23;20379;-77
2023/10/17 15:04:57;;;;;;;6.07;2.63;;;12.60;52.90;;;;;;6152144;23;20471;-78
2023/10/17 15:08:14;;;;;;;11.80;5.50;;;12.70;53.30;;;;;;6114459;23;20416;-78
2023/10/17 15:10:41;;;;;;;15.13;6.37;;;12.60;53.80;;;;;;6049701;23;20391;-78
2023/10/17 15:16:34;;;;;;;5.30;3.17;;;12.60;54.20;;;;;;6174804;23;20451;-78
2023/10/17 15:19:08;;;;;;;4.40;2.30;;;12.50;54.30;;;;;;6155611;23;20420;-76
2023/10/17 15:21:37;;;;;;;3.70;2.00;;;12.50;53.70;;;;;;6157570;23;20360;-77
2023/10/17 15:24:12;;;;;;;6.90;4.20;;;12.40;53.10;;;;;;6182811;23;20410;-77
2023/10/17 15:27:01;;;;;;;19.33;8.27;;;12.40;53.20;;;;;;6144150;23;20874;-78
2023/10/17 15:29:50;;;;;;;18.30;6.93;;;12.30;53.50;;;;;;6093196;23;20397;-77
2023/10/17 15:35:28;;;;;;;16.80;8.97;;;12.20;54.00;;;;;;6117742;23;20506;-77
2023/10/17 15:37:57;;;;;;;12.23;6.20;;;12.20;54.00;;;;;;6153555;23;20429;-78
2023/10/17 15:40:25;;;;;;;11.93;5.80;;;12.20;53.90;;;;;;6128540;23;20398;-76
2023/10/17 15:42:54;;;;;;;21.27;7.10;;;12.20;54.00;;;;;;6043171;23;20402;-77
2023/10/17 15:48:09;;;;;;;43.73;22.07;;;12.10;54.20;;;;;;6097604;23;20516;-77
2023/10/17 15:50:42;;;;;;;32.27;15.50;;;12.10;54.10;;;;;;6064705;23;20387;-77
2023/10/17 15:53:10;;;;;;;10.87;5.10;;;12.00;54.00;;;;;;6064623;23;20473;-77
2023/10/17 15:55:36;;;;;;;6.00;2.80;;;12.00;53.90;;;;;;5993298;23;20387;-77